Time;durP1;ratioP1;P1;durP2;ratioP2;P2;SDS_P1;SDS_P2;PMS_P1;PMS_P2;Temp;Humidity;BMP_temperature;BMP_pressure;BME280_temperature;BME280_humidity;BME280_pressure;Samples;Min_cycle;Max_cycle;Signal;HPM_P1;HPM_P2
2020/12/09 00:01:51;;;;;;;45.83;25.83;;;;;;;0.49;94.47;100893.31;4969512;28;20095;-80
2020/12/09 00:04:17;;;;;;;46.60;26.10;;;;;;;0.47;94.42;100892.34;4965011;28;20023;-81
2020/12/09 00:06:43;;;;;;;;;;;;;;;0.45;94.47;100888.84;4969385;28;20109;-81
2020/12/09 00:09:11;;;;;;;39.63;21.23;;;;;;;0.37;94.44;100889.13;4965845;28;19957;-81
2020/12/09 00:11:37;;;;;;;35.57;20.50;;;;;;;0.26;94.17;100896.00;4971900;28;20137;-81
2020/12/09 00:14:03;;;;;;;37.55;21.40;;;;;;;0.15;94.04;100897.84;4966508;28;20070;-80
2020/12/09 00:16:28;;;;;;;39.83;19.97;;;;;;;0.08;94.04;100899.88;4967887;28;20049;-81
2020/12/09 00:18:54;;;;;;;36.75;20.80;;;;;;;0.02;93.50;100895.28;4962444;28;20117;-81
2020/12/09 00:21:20;;;;;;;37.00;21.50;;;;;;;-0.03;93.55;100900.00;4965522;28;20069;-81
2020/12/09 00:23:47;;;;;;;41.93;24.40;;;;;;;-0.04;93.94;100900.78;4966181;28;20278;-79
2020/12/09 00:26:16;;;;;;;47.17;24.53;;;;;;;-0.06;94.02;100907.38;4976589;28;20080;-80
2020/12/09 00:28:41;;;;;;;45.23;24.07;;;;;;;-0.08;93.62;100905.53;4980973;28;20054;-80
2020/12/09 00:31:07;;;;;;;49.83;27.02;;;;;;;-0.09;93.94;100903.78;4963667;28;20031;-80
2020/12/09 00:33:32;;;;;;;42.87;23.57;;;;;;;-0.08;94.30;100908.06;4967132;28;20027;-79
2020/12/09 00:35:57;;;;;;;50.53;27.10;;;;;;;-0.10;94.24;100910.47;4969277;28;20377;-80
2020/12/09 00:38:23;;;;;;;49.93;28.13;;;;;;;-0.10;94.24;100910.47;4967835;28;20306;-80
2020/12/09 00:40:49;;;;;;;45.30;23.60;;;;;;;-0.09;94.40;100917.28;4972480;28;20274;-81
2020/12/09 00:43:14;;;;;;;58.97;29.63;;;;;;;-0.16;94.34;100910.06;4963083;28;20452;-79
2020/12/09 00:45:39;;;;;;;61.88;30.17;;;;;;;-0.17;94.62;100910.84;4963758;28;20023;-80
2020/12/09 00:48:05;;;;;;;66.50;32.03;;;;;;;-0.16;94.69;100907.53;4962645;28;20086;-80
2020/12/09 00:50:30;;;;;;;106.57;41.50;;;;;;;0.04;95.56;100913.06;4967779;28;20031;-80
2020/12/09 00:52:56;;;;;;;74.88;34.80;;;;;;;0.10;95.97;100909.28;4978193;28;20485;-80
2020/12/09 00:55:21;;;;;;;72.82;34.10;;;;;;;0.07;96.12;100895.59;4962882;28;20020;-81
2020/12/09 00:57:47;;;;;;;81.95;36.78;;;;;;;0.22;96.65;100904.16;4968956;28;20026;-81
2020/12/09 01:00:12;;;;;;;82.97;37.90;;;;;;;0.27;96.96;100900.28;4964658;28;20035;-81
2020/12/09 01:02:38;;;;;;;85.40;38.63;;;;;;;0.29;97.03;100901.25;4965340;28;20018;-80
2020/12/09 01:05:07;;;;;;;83.22;36.78;;;;;;;0.27;97.13;100903.69;4966681;28;20031;-80
2020/12/09 01:07:33;;;;;;;78.20;35.57;;;;;;;0.30;96.72;100897.94;4969694;28;20060;-80
2020/12/09 01:09:58;;;;;;;61.33;30.92;;;;;;;0.21;96.69;100908.34;4969862;28;20094;-80
2020/12/09 01:12:24;;;;;;;60.45;29.77;;;;;;;0.15;96.73;100907.94;4970284;28;20027;-80
2020/12/09 01:14:49;;;;;;;70.80;31.83;;;;;;;0.01;96.40;100903.63;4973136;28;20038;-80
2020/12/09 01:17:17;;;;;;;62.33;30.00;;;;;;;0.05;96.30;100918.22;4966563;28;20023;-81
2020/12/09 01:19:42;;;;;;;53.23;26.03;;;;;;;-0.05;96.46;100911.66;4969343;28;20034;-80
2020/12/09 01:22:07;;;;;;;62.10;28.70;;;;;;;-0.06;96.00;100916.59;4968665;28;20374;-79
2020/12/09 01:24:33;;;;;;;104.63;29.27;;;;;;;-0.05;95.94;100916.69;4965247;28;20305;-80
2020/12/09 01:26:59;;;;;;;401.92;30.63;;;;;;;-0.24;95.67;100915.38;4974675;28;20285;-80
2020/12/09 01:29:25;;;;;;;298.33;28.10;;;;;;;-0.27;95.56;100926.16;4972714;28;20022;-80
2020/12/09 01:32:00;;;;;;;280.70;27.60;;;;;;;-0.41;95.44;100921.78;4969391;28;20388;-80
2020/12/09 01:34:27;;;;;;;327.10;29.90;;;;;;;-0.46;95.13;100929.06;4969164;28;20027;-80
2020/12/09 01:36:53;;;;;;;241.20;31.03;;;;;;;-0.66;96.22;100926.78;4984764;28;20031;-80
2020/12/09 01:39:18;;;;;;;84.88;26.67;;;;;;;-0.58;96.18;100929.88;4973688;28;20038;-80
2020/12/09 01:41:44;;;;;;;63.58;24.80;;;;;;;-0.61;96.35;100932.19;4978400;28;20027;-80
2020/12/09 01:44:09;;;;;;;52.60;26.63;;;;;;;-0.57;95.91;100929.97;4972962;28;20404;-80
2020/12/09 01:46:34;;;;;;;59.60;28.37;;;;;;;-0.39;96.42;100932.88;4969990;28;20031;-81
2020/12/09 01:49:01;;;;;;;76.22;32.38;;;;;;;-0.24;96.36;100931.41;4967724;28;20348;-79
2020/12/09 01:51:28;;;;;;;64.03;30.00;;;;;;;-0.35;96.55;100934.81;4972030;28;20023;-80
2020/12/09 01:53:55;;;;;;;62.60;30.90;;;;;;;-0.33;96.16;100929.13;4964699;28;20023;-80
2020/12/09 01:56:21;;;;;;;70.33;32.03;;;;;;;-0.30;96.50;100936.03;4971149;28;20085;-81
2020/12/09 01:58:51;;;;;;;101.30;36.60;;;;;;;-0.22;96.33;100934.03;4969599;28;20030;-79
2020/12/09 02:01:17;;;;;;;118.67;39.77;;;;;;;-0.12;96.25;100932.22;4967370;28;20114;-80
2020/12/09 02:03:42;;;;;;;156.48;36.47;;;;;;;-0.06;96.67;100937.69;4969440;28;20041;-81
2020/12/09 02:06:08;;;;;;;84.53;30.27;;;;;;;-0.06;96.42;100940.19;4971708;28;20046;-80
2020/12/09 02:08:33;;;;;;;213.50;35.92;;;;;;;0.01;96.44;100943.16;4968957;28;20027;-79
2020/12/09 02:11:00;;;;;;;114.70;33.35;;;;;;;0.01;96.58;100948.22;4967299;28;20038;-80
2020/12/09 02:13:30;;;;;;;136.83;34.63;;;;;;;0.06;96.78;100947.75;4965637;28;20043;-79
2020/12/09 02:15:56;;;;;;;164.83;34.83;;;;;;;0.11;96.56;100955.63;4964301;28;20128;-79
2020/12/09 02:18:22;;;;;;;134.13;33.70;;;;;;;0.13;96.70;100949.91;4964992;28;20106;-80
2020/12/09 02:20:47;;;;;;;125.47;31.80;;;;;;;0.15;96.57;100952.53;4984558;28;20049;-80
2020/12/09 02:23:13;;;;;;;96.70;31.40;;;;;;;0.16;96.56;100954.28;4967497;28;20512;-80
2020/12/09 02:25:38;;;;;;;86.13;31.10;;;;;;;0.20;96.15;100957.09;4965541;28;20038;-80
2020/12/09 02:28:03;;;;;;;134.02;32.05;;;;;;;0.13;96.31;100952.44;4968754;28;20074;-81
2020/12/09 02:30:29;;;;;;;114.05;30.92;;;;;;;0.08;96.23;100956.31;4968473;28;20023;-79
2020/12/09 02:32:54;;;;;;;116.80;29.17;;;;;;;0.08;95.77;100961.34;4960667;28;20437;-79
2020/12/09 02:35:19;;;;;;;88.30;26.80;;;;;;;0.02;95.67;100967.66;4971814;28;20286;-80
2020/12/09 02:37:45;;;;;;;98.57;25.95;;;;;;;0.03;95.78;100967.75;4967855;28;20294;-81
2020/12/09 02:40:10;;;;;;;64.60;22.33;;;;;;;-0.04;95.38;100963.03;4967438;28;20031;-80
2020/12/09 02:42:35;;;;;;;85.80;24.55;;;;;;;-0.08;95.46;100956.03;4965282;28;20114;-79
2020/12/09 02:45:00;;;;;;;58.00;23.80;;;;;;;-0.13;95.29;100960.75;4962834;28;20181;-80
2020/12/09 02:47:26;;;;;;;81.75;26.10;;;;;;;-0.05;95.02;100958.75;4966304;28;20031;-78
2020/12/09 02:49:51;;;;;;;48.27;25.00;;;;;;;-0.08;94.91;100964.47;4970703;28;20073;-79
2020/12/09 02:52:16;;;;;;;73.10;24.08;;;;;;;-0.10;94.91;100957.56;4981940;28;20114;-78
2020/12/09 02:54:42;;;;;;;47.17;25.42;;;;;;;-0.10;95.07;100955.91;4964245;28;20030;-80
2020/12/09 02:57:07;;;;;;;113.38;26.45;;;;;;;-0.15;95.01;100957.25;4967585;28;20030;-80
2020/12/09 02:59:32;;;;;;;95.28;25.73;;;;;;;-0.19;95.06;100950.25;4976580;28;20034;-80
2020/12/09 03:01:58;;;;;;;97.20;25.95;;;;;;;-0.18;94.83;100951.13;4955048;28;20031;-80
2020/12/09 03:04:23;;;;;;;101.90;24.63;;;;;;;-0.32;94.47;100950.22;4956993;28;20054;-79
2020/12/09 03:06:48;;;;;;;128.73;26.33;;;;;;;-0.34;94.44;100952.59;4973063;28;20073;-80
2020/12/09 03:09:13;;;;;;;117.70;27.60;;;;;;;-0.37;94.26;100954.03;4969713;28;20783;-79
2020/12/09 03:11:39;;;;;;;84.47;27.33;;;;;;;-0.37;94.60;100954.03;4986470;28;20360;-80
2020/12/09 03:14:04;;;;;;;80.80;25.70;;;;;;;-0.37;94.59;100956.56;4963477;28;20298;-80
2020/12/09 03:16:29;;;;;;;102.13;26.90;;;;;;;-0.40;94.59;100957.22;4966622;28;20489;-80
2020/12/09 03:18:54;;;;;;;65.70;23.60;;;;;;;-0.37;94.59;100959.97;4987799;28;20026;-78
2020/12/09 03:21:20;;;;;;;112.43;27.43;;;;;;;-0.43;94.46;100958.66;4971075;28;20453;-79
2020/12/09 03:23:45;;;;;;;83.80;26.20;;;;;;;-0.40;94.68;100958.88;4966508;28;20331;-79
2020/12/09 03:26:11;;;;;;;129.57;27.73;;;;;;;-0.39;95.04;100955.56;4969242;28;20664;-79
2020/12/09 03:28:36;;;;;;;68.70;24.95;;;;;;;-0.35;95.32;100962.59;4965921;28;20081;-78
2020/12/09 03:31:03;;;;;;;87.28;27.23;;;;;;;-0.40;95.15;100959.75;4968907;28;20038;-79
2020/12/09 03:33:29;;;;;;;95.47;26.23;;;;;;;-0.35;95.21;100958.41;4969546;28;20454;-80
2020/12/09 03:35:54;;;;;;;103.10;28.30;;;;;;;-0.28;95.12;100963.91;4971404;28;20102;-79
2020/12/09 03:38:19;;;;;;;68.68;25.13;;;;;;;-0.26;95.49;100969.94;4970691;28;20530;-80
2020/12/09 03:40:45;;;;;;;89.30;28.40;;;;;;;-0.35;95.50;100968.50;4960178;28;20042;-80
2020/12/09 03:43:10;;;;;;;103.45;28.70;;;;;;;-0.29;95.49;100978.19;4957856;28;20329;-80
2020/12/09 03:45:35;;;;;;;100.55;27.92;;;;;;;-0.26;95.71;100980.91;4972101;28;20027;-80
2020/12/09 03:48:01;;;;;;;89.82;28.23;;;;;;;-0.20;95.19;100971.22;4965011;28;20076;-80
2020/12/09 03:50:26;;;;;;;96.97;27.65;;;;;;;-0.21;95.47;100971.13;4958163;28;20038;-80
2020/12/09 03:52:52;;;;;;;73.85;27.60;;;;;;;-0.26;95.55;100970.81;4952878;28;20035;-80
2020/12/09 03:55:17;;;;;;;69.30;27.88;;;;;;;-0.17;95.42;100973.97;4953036;28;20054;-79
2020/12/09 03:57:42;;;;;;;80.50;27.27;;;;;;;-0.16;95.56;100978.22;4953532;28;20024;-80
2020/12/09 04:00:07;;;;;;;78.13;28.07;;;;;;;-0.15;95.74;100977.47;4985592;28;20031;-81
2020/12/09 04:02:33;;;;;;;94.80;27.60;;;;;;;-0.11;95.27;100978.53;4985276;28;20287;-80
2020/12/09 04:04:58;;;;;;;130.25;30.52;;;;;;;-0.12;95.80;100980.19;4965880;28;20019;-79
2020/12/09 04:07:23;;;;;;;70.30;29.03;;;;;;;-0.05;95.47;100977.31;4959697;28;20106;-79
2020/12/09 04:09:49;;;;;;;62.13;27.40;;;;;;;-0.03;95.65;100969.84;4969008;28;20270;-80
2020/12/09 04:12:14;;;;;;;62.00;28.98;;;;;;;0.01;95.39;100978.53;4963085;28;20027;-78
2020/12/09 04:14:39;;;;;;;88.83;25.80;;;;;;;0.02;95.18;100973.56;4958137;28;20027;-77
2020/12/09 04:17:04;;;;;;;95.13;28.97;;;;;;;-0.04;95.50;100976.53;4964493;28;20298;-80
2020/12/09 04:19:29;;;;;;;70.28;25.70;;;;;;;0.09;95.42;100964.75;4962502;28;20031;-80
2020/12/09 04:21:55;;;;;;;60.60;26.07;;;;;;;0.10;95.39;100967.38;4964922;28;20031;-79
2020/12/09 04:24:20;;;;;;;79.13;26.00;;;;;;;0.08;95.21;100958.81;4958468;28;20267;-78
2020/12/09 04:26:45;;;;;;;71.22;25.85;;;;;;;0.10;95.13;100958.94;4966551;28;20599;-77
2020/12/09 04:29:11;;;;;;;85.87;25.10;;;;;;;0.01;95.20;100963.38;4956119;28;20023;-79
2020/12/09 04:31:36;;;;;;;55.72;25.35;;;;;;;-0.02;94.89;100952.25;4953868;28;20651;-80
2020/12/09 04:34:02;;;;;;;141.35;26.58;;;;;;;-0.14;94.87;100964.06;4950250;28;20409;-78
2020/12/09 04:36:28;;;;;;;57.63;25.03;;;;;;;-0.10;95.00;100963.50;4959909;28;20049;-80
2020/12/09 04:38:53;;;;;;;71.15;26.98;;;;;;;-0.04;95.44;100968.09;4955332;28;20527;-78
2020/12/09 04:41:19;;;;;;;95.50;27.02;;;;;;;-0.12;95.38;100972.63;4968394;28;20121;-78
2020/12/09 04:43:44;;;;;;;115.25;26.00;;;;;;;-0.21;95.30;100978.69;4975725;28;20039;-79
2020/12/09 04:46:10;;;;;;;101.82;25.50;;;;;;;-0.20;94.84;100978.81;4969463;28;20477;-78
2020/12/09 04:48:55;;;;;;;66.63;25.58;;;;;;;-0.18;95.14;100979.78;4968466;28;20037;-80
2020/12/09 04:51:45;;;;;;;56.07;25.47;;;;;;;-0.21;95.23;100979.56;4951303;28;20122;-78
2020/12/09 04:54:15;;;;;;;133.40;28.93;;;;;;;-0.36;95.39;100978.50;4965796;28;20041;-78
2020/12/09 04:56:54;;;;;;;116.17;28.67;;;;;;;-0.42;95.28;100975.56;4964208;28;20027;-78
2020/12/09 04:59:24;;;;;;;103.70;27.87;;;;;;;-0.35;95.52;100982.78;4960807;28;20049;-79
2020/12/09 05:02:01;;;;;;;106.37;29.73;;;;;;;-0.27;95.94;100990.91;4979783;28;20396;-78
2020/12/09 05:04:29;;;;;;;116.60;29.85;;;;;;;-0.26;95.79;100988.47;4968935;28;20039;-79
2020/12/09 05:06:54;;;;;;;130.00;27.93;;;;;;;-0.34;95.48;100984.53;4959510;28;20049;-79
2020/12/09 05:09:25;;;;;;;98.15;30.00;;;;;;;-0.23;95.38;100986.16;4969085;28;20026;-79
2020/12/09 05:11:58;;;;;;;109.63;32.60;;;;;;;-0.25;95.50;100980.13;4958443;28;20097;-79
2020/12/09 05:14:23;;;;;;;114.10;31.03;;;;;;;-0.29;95.45;100988.28;4966677;28;20527;-78
2020/12/09 05:17:00;;;;;;;131.25;32.38;;;;;;;-0.29;95.63;100989.91;4961337;28;20066;-80
2020/12/09 05:19:26;;;;;;;;;;;;;;;-0.41;95.53;100988.28;4980121;23;20221;-77
2020/12/09 05:21:51;;;;;;;117.03;31.83;;;;;;;-0.39;95.35;100990.91;4975343;28;20307;-78
2020/12/09 05:24:20;;;;;;;68.45;28.25;;;;;;;-0.36;95.46;100993.66;4984042;28;20034;-76
2020/12/09 05:26:46;;;;;;;76.17;29.07;;;;;;;-0.24;95.33;100997.03;4990823;28;20026;-76
2020/12/09 05:29:18;;;;;;;;;;;;;;;-0.23;95.29;100997.91;4978806;28;20027;-76
2020/12/09 05:31:49;;;;;;;111.70;29.80;;;;;;;-0.27;95.21;100994.31;4973753;28;19914;-76
2020/12/09 05:34:17;;;;;;;85.03;28.93;;;;;;;-0.24;95.25;101004.59;4977387;28;20553;-76
2020/12/09 05:36:45;;;;;;;101.27;31.73;;;;;;;-0.30;95.08;101010.88;4978198;28;20046;-78
2020/12/09 05:39:11;;;;;;;91.70;33.80;;;;;;;-0.33;95.23;101014.94;4976040;28;20019;-78
2020/12/09 05:41:36;;;;;;;99.32;33.83;;;;;;;-0.36;95.08;101016.34;4976245;28;20091;-78
2020/12/09 05:44:03;;;;;;;157.55;34.83;;;;;;;-0.33;95.24;101019.09;4976830;28;20519;-77
2020/12/09 05:46:29;;;;;;;150.20;32.10;;;;;;;-0.44;95.10;101025.03;4994101;28;20022;-76
2020/12/09 05:48:54;;;;;;;79.72;34.58;;;;;;;-0.42;95.15;101015.94;4981057;28;20388;-77
2020/12/09 05:51:20;;;;;;;137.05;36.33;;;;;;;-0.33;95.30;101016.56;4994097;28;20037;-75
2020/12/09 05:53:47;;;;;;;117.35;38.85;;;;;;;-0.29;95.72;101023.59;4985342;28;20026;-75
2020/12/09 05:56:26;;;;;;;94.70;36.87;;;;;;;-0.28;95.55;101017.78;4983325;28;20026;-78
2020/12/09 05:58:52;;;;;;;83.70;36.77;;;;;;;-0.28;95.02;101020.31;4989858;28;20038;-78
2020/12/09 06:01:20;;;;;;;136.00;38.95;;;;;;;-0.29;95.08;101021.09;4978964;28;20023;-76
2020/12/09 06:03:53;;;;;;;87.23;38.77;;;;;;;-0.26;95.53;101016.25;4977439;28;20372;-75
2020/12/09 06:06:23;;;;;;;113.77;37.47;;;;;;;-0.22;95.12;101018.22;4977776;28;20494;-75
2020/12/09 06:08:54;;;;;;;105.00;37.60;;;;;;;-0.24;95.39;101017.22;4977512;28;20026;-76
2020/12/09 06:11:24;;;;;;;114.47;38.47;;;;;;;-0.23;95.23;101024.03;4980296;28;20029;-77
2020/12/09 06:13:50;;;;;;;111.53;36.80;;;;;;;-0.22;95.16;101014.81;4979956;28;20105;-77
2020/12/09 06:16:20;;;;;;;105.80;35.45;;;;;;;-0.18;95.05;101012.59;4982429;28;20023;-77
2020/12/09 06:18:50;;;;;;;103.10;36.00;;;;;;;-0.18;94.93;101017.66;4980441;28;20049;-77
2020/12/09 06:21:16;;;;;;;165.00;35.57;;;;;;;-0.29;94.81;101010.13;4986198;28;20026;-76
2020/12/09 06:23:43;;;;;;;327.63;42.65;;;;;;;-0.63;95.82;101018.72;4982034;28;20022;-77
2020/12/09 06:26:08;;;;;;;144.27;41.40;;;;;;;-0.44;96.10;101012.44;4982701;28;20077;-76
2020/12/09 06:28:48;;;;;;;168.70;45.00;;;;;;;-0.43;96.24;101014.19;4982530;28;20026;-76
2020/12/09 06:31:19;;;;;;;147.83;42.97;;;;;;;-0.29;96.14;101016.03;4993668;28;20027;-76
2020/12/09 06:33:45;;;;;;;212.47;42.23;;;;;;;-0.47;95.92;101009.69;4982711;28;20072;-75
2020/12/09 06:36:11;;;;;;;142.10;44.10;;;;;;;-0.49;96.08;101016.28;4975527;28;20489;-76
2020/12/09 06:38:37;;;;;;;140.40;44.33;;;;;;;-0.46;95.98;101013.97;4976807;28;20038;-76
2020/12/09 06:41:05;;;;;;;150.70;43.53;;;;;;;-0.38;96.00;101013.72;4981249;28;20042;-76
2020/12/09 06:43:31;;;;;;;142.00;44.40;;;;;;;-0.34;96.03;101022.38;4981794;28;20033;-74
2020/12/09 06:45:56;;;;;;;;;;;;;;;-0.30;96.17;101019.34;4997444;28;20050;-76
2020/12/09 06:48:22;;;;;;;125.80;41.13;;;;;;;-0.26;95.76;101017.91;4980788;28;19950;-77
2020/12/09 06:50:47;;;;;;;143.32;41.30;;;;;;;-0.25;95.51;101018.00;4984129;28;20030;-77
2020/12/09 06:53:13;;;;;;;188.23;38.33;;;;;;;-0.44;95.15;101025.94;4981319;28;20039;-78
2020/12/09 06:55:39;;;;;;;153.98;38.05;;;;;;;-0.45;95.15;101025.81;4979871;28;20054;-76
2020/12/09 06:58:25;;;;;;;188.93;40.65;;;;;;;-0.52;95.50;101027.03;4982121;28;21429;-77
2020/12/09 07:01:05;;;;;;;115.20;38.60;;;;;;;-0.45;95.41;101031.75;5000748;28;20541;-77
2020/12/09 07:03:36;;;;;;;102.30;39.93;;;;;;;-0.41;95.53;101032.84;4985141;28;20281;-78
2020/12/09 07:06:21;;;;;;;119.03;38.17;;;;;;;-0.30;95.45;101039.53;4980980;28;20054;-76
2020/12/09 07:08:48;;;;;;;217.83;42.37;;;;;;;-0.57;95.24;101040.97;4981071;28;20113;-76
2020/12/09 07:11:13;;;;;;;168.43;37.93;;;;;;;-0.56;95.60;101041.84;4984561;28;20057;-77
2020/12/09 07:13:38;;;;;;;181.70;44.33;;;;;;;-0.51;95.85;101046.47;4979493;28;20054;-76
2020/12/09 07:16:05;;;;;;;169.65;40.92;;;;;;;-0.59;96.03;101034.06;4980754;28;20106;-75
2020/12/09 07:18:32;;;;;;;234.30;46.80;;;;;;;-0.63;96.49;101033.88;4980792;28;20034;-77
2020/12/09 07:20:58;;;;;;;171.47;45.77;;;;;;;-0.65;96.67;101034.53;4980798;28;20026;-76
2020/12/09 07:23:24;;;;;;;188.15;45.40;;;;;;;-0.64;96.69;101032.09;4976565;28;20567;-76
2020/12/09 07:25:53;;;;;;;168.00;50.20;;;;;;;-0.51;96.86;101036.38;4979320;28;20023;-76
2020/12/09 07:28:19;;;;;;;186.20;46.90;;;;;;;-0.45;96.64;101048.53;4980581;28;20038;-76
2020/12/09 07:30:45;;;;;;;359.75;52.47;;;;;;;-0.73;97.13;101048.22;4977481;28;20030;-77
2020/12/09 07:33:15;;;;;;;248.40;42.22;;;;;;;-0.81;97.21;101049.31;4981394;28;20458;-76
2020/12/09 07:35:42;;;;;;;186.73;40.70;;;;;;;-0.75;97.04;101050.63;4981011;28;20022;-76
2020/12/09 07:38:07;;;;;;;174.10;48.77;;;;;;;-0.66;97.32;101056.31;4980200;28;20362;-76
2020/12/09 07:40:34;;;;;;;236.70;41.75;;;;;;;-0.87;96.74;101047.22;4999111;28;20033;-76
2020/12/09 07:43:11;;;;;;;186.10;37.50;;;;;;;-1.07;96.98;101042.38;4973704;28;20026;-77
2020/12/09 07:45:39;;;;;;;;;;;;;;;-0.98;97.51;101050.59;4981417;28;20054;-75
2020/12/09 07:48:10;;;;;;;172.10;46.93;;;;;;;-0.87;97.18;101056.44;4997526;28;19925;-77
2020/12/09 07:50:37;;;;;;;135.37;46.33;;;;;;;-0.73;97.15;101058.28;4977458;28;20058;-76
2020/12/09 07:53:03;;;;;;;137.57;45.40;;;;;;;-0.71;97.25;101061.81;4981081;28;20046;-78
2020/12/09 07:55:33;;;;;;;129.43;45.53;;;;;;;-0.65;96.93;101059.75;4983322;28;20030;-77
2020/12/09 07:58:14;;;;;;;120.87;41.60;;;;;;;-0.67;96.80;101059.59;4979892;28;20026;-78
2020/12/09 08:00:44;;;;;;;117.83;40.43;;;;;;;-0.79;96.84;101062.91;4977839;28;20096;-76
2020/12/09 08:03:22;;;;;;;285.53;47.97;;;;;;;-0.78;96.92;101065.53;4973771;28;20034;-78
2020/12/09 08:05:48;;;;;;;222.37;51.03;;;;;;;-0.75;97.23;101069.94;4978693;28;20569;-77
2020/12/09 08:08:14;;;;;;;143.13;43.43;;;;;;;-0.72;97.11;101071.00;4979364;28;20018;-76
2020/12/09 08:10:43;;;;;;;120.30;36.87;;;;;;;-0.77;97.20;101061.38;4980625;28;20487;-77
2020/12/09 08:13:20;;;;;;;178.80;46.03;;;;;;;-0.73;97.16;101064.22;4978662;28;20096;-77
2020/12/09 08:15:57;;;;;;;;;;;;;;;-0.77;97.28;101067.28;4989635;28;20051;-77
2020/12/09 08:18:22;;;;;;;144.18;39.88;;;;;;;-0.68;97.35;101057.84;4980127;28;19925;-78
2020/12/09 08:20:49;;;;;;;322.00;57.13;;;;;;;-0.68;97.40;101065.41;4981150;28;20031;-77
2020/12/09 08:23:17;;;;;;;220.90;58.23;;;;;;;-0.56;97.39;101062.03;4975770;28;20097;-77
2020/12/09 08:25:53;;;;;;;193.17;52.43;;;;;;;-0.54;97.68;101063.03;4972675;28;20574;-76
2020/12/09 08:28:20;;;;;;;;;;;;;;;-0.44;97.54;101058.72;4978803;28;20022;-76
2020/12/09 08:30:45;;;;;;;181.07;55.13;;;;;;;-0.32;97.17;101068.84;4995590;28;19917;-77
2020/12/09 08:33:10;;;;;;;178.00;52.93;;;;;;;-0.22;97.18;101063.66;4980309;28;20087;-77
2020/12/09 08:35:45;;;;;;;157.23;49.43;;;;;;;-0.19;97.32;101061.34;4982220;28;20289;-78
2020/12/09 08:38:20;;;;;;;143.43;46.97;;;;;;;-0.11;96.94;101059.34;4977926;28;20503;-78
2020/12/09 08:40:49;;;;;;;144.10;48.07;;;;;;;-0.05;97.15;101055.59;4986438;28;20030;-77
2020/12/09 08:43:14;;;;;;;151.53;49.03;;;;;;;-0.05;97.08;101055.59;4981051;28;20026;-77
2020/12/09 08:46:36;;;;;;;139.93;47.00;;;;;;;0.04;96.77;101054.47;4996593;28;20026;-79
2020/12/09 08:49:01;;;;;;;126.93;42.97;;;;;;;0.10;96.62;101050.72;4981594;28;20484;-79
2020/12/09 08:51:27;;;;;;;114.28;41.17;;;;;;;0.10;96.15;101049.84;4984176;28;20034;-80
2020/12/09 08:53:53;;;;;;;140.98;41.15;;;;;;;-0.03;95.98;101041.41;4983107;28;20103;-81
2020/12/09 08:56:29;;;;;;;114.40;39.13;;;;;;;-0.01;95.67;101044.91;4986150;28;20038;-79
2020/12/09 08:58:56;;;;;;;152.85;38.50;;;;;;;-0.09;96.04;101042.66;4982477;28;20034;-79
2020/12/09 09:01:21;;;;;;;151.32;41.97;;;;;;;-0.12;96.14;101048.34;4977312;28;20092;-79
2020/12/09 09:03:48;;;;;;;162.93;41.47;;;;;;;-0.12;96.24;101052.53;4976084;28;20031;-78
2020/12/09 09:06:13;;;;;;;130.23;38.47;;;;;;;-0.29;96.57;101043.81;4978878;28;20018;-80
2020/12/09 09:08:39;;;;;;;158.10;41.58;;;;;;;-0.25;96.54;101045.78;4981694;28;20057;-79
2020/12/09 09:11:04;;;;;;;232.32;45.80;;;;;;;-0.35;96.83;101048.41;4977414;28;20022;-79
2020/12/09 09:13:29;;;;;;;152.80;45.70;;;;;;;-0.26;97.02;101049.06;4975187;28;20030;-78
2020/12/09 09:15:54;;;;;;;164.35;48.80;;;;;;;-0.22;96.60;101051.03;4976763;28;20282;-79
2020/12/09 09:18:20;;;;;;;176.50;46.47;;;;;;;-0.22;96.96;101050.16;4977650;28;20026;-78
2020/12/09 09:20:45;;;;;;;248.63;80.88;;;;;;;-0.10;96.78;101056.91;4981686;28;20026;-78
2020/12/09 09:23:10;;;;;;;169.43;48.15;;;;;;;-0.02;96.80;101059.97;4997424;28;20026;-79
2020/12/09 09:25:36;;;;;;;138.07;44.10;;;;;;;0.08;96.68;101056.44;4978177;28;20096;-79
2020/12/09 09:28:02;;;;;;;120.15;37.90;;;;;;;0.10;96.24;101044.78;4976688;28;20067;-80
2020/12/09 09:30:28;;;;;;;;;;;;;;;0.00;95.93;101043.31;4977787;28;20104;-79
2020/12/09 09:32:53;;;;;;;115.70;37.93;;;;;;;0.07;95.68;101052.16;4979721;28;19918;-79
2020/12/09 09:35:19;;;;;;;105.70;36.17;;;;;;;0.13;95.55;101055.97;4978601;28;20407;-79
2020/12/09 09:37:45;;;;;;;122.33;38.63;;;;;;;0.04;95.92;101051.97;4978055;28;20403;-79
2020/12/09 09:40:11;;;;;;;122.90;38.75;;;;;;;0.14;95.86;101051.81;4986973;28;20106;-78
2020/12/09 09:42:38;;;;;;;116.75;37.85;;;;;;;0.23;95.68;101052.44;4979584;28;20023;-79
2020/12/09 09:45:06;;;;;;;108.27;35.63;;;;;;;0.25;95.50;101058.47;4977394;28;20379;-78
2020/12/09 09:47:31;;;;;;;103.23;35.13;;;;;;;0.29;95.36;101055.38;4972898;28;20019;-78
2020/12/09 09:49:56;;;;;;;105.03;38.08;;;;;;;0.37;95.51;101050.84;4975534;28;20072;-79
2020/12/09 09:52:22;;;;;;;96.33;29.83;;;;;;;0.28;95.33;101051.09;4977075;28;20556;-78
2020/12/09 09:54:47;;;;;;;107.88;36.05;;;;;;;-0.04;95.64;101051.41;4977172;28;20026;-79
2020/12/09 09:57:13;;;;;;;141.10;38.93;;;;;;;-0.02;96.14;101050.75;4975355;28;20137;-79
2020/12/09 09:59:38;;;;;;;129.00;37.42;;;;;;;0.10;96.64;101053.25;4975645;28;20670;-79
2020/12/09 10:02:04;;;;;;;124.50;39.58;;;;;;;0.29;96.44;101055.38;4974312;28;20026;-80
2020/12/09 10:04:29;;;;;;;106.85;33.05;;;;;;;0.38;95.71;101052.59;4977086;28;20031;-80
2020/12/09 10:06:54;;;;;;;86.43;30.85;;;;;;;0.44;95.66;101056.41;4984663;28;20049;-80
2020/12/09 10:09:19;;;;;;;94.87;32.33;;;;;;;0.50;95.20;101044.19;4984776;28;20034;-80
2020/12/09 10:11:45;;;;;;;89.93;32.38;;;;;;;0.52;95.03;101045.16;5001674;28;20282;-80
2020/12/09 10:14:11;;;;;;;69.55;22.98;;;;;;;0.40;94.77;101041.81;4987930;28;20023;-78
2020/12/09 10:16:39;;;;;;;90.93;33.40;;;;;;;0.57;94.86;101045.47;4985827;28;20029;-79
2020/12/09 10:19:05;;;;;;;98.60;31.33;;;;;;;0.50;94.93;101041.66;4985900;28;20035;-79
2020/12/09 10:21:32;;;;;;;98.05;33.50;;;;;;;0.59;94.85;101039.72;4982220;28;20038;-79
2020/12/09 10:24:00;;;;;;;135.10;38.27;;;;;;;0.24;95.47;101031.44;4980467;28;20106;-78
2020/12/09 10:26:31;;;;;;;140.77;37.30;;;;;;;0.27;96.09;101037.56;4981258;28;20456;-78
2020/12/09 10:29:01;;;;;;;148.50;39.73;;;;;;;0.15;96.02;101038.41;4980307;28;20047;-79
2020/12/09 10:31:35;;;;;;;149.83;40.73;;;;;;;0.02;96.43;101031.66;4979611;28;20027;-79
2020/12/09 10:34:01;;;;;;;151.40;38.67;;;;;;;0.09;96.69;101023.72;4979507;28;20046;-78
2020/12/09 10:36:27;;;;;;;258.90;49.83;;;;;;;0.12;97.00;101023.03;4972430;28;20424;-79
2020/12/09 10:38:52;;;;;;;177.07;44.97;;;;;;;0.26;97.14;101019.78;5003665;28;20033;-79
2020/12/09 10:41:18;;;;;;;142.98;39.55;;;;;;;0.21;96.32;101009.38;4982065;28;20437;-78
2020/12/09 10:43:43;;;;;;;147.07;39.92;;;;;;;0.30;96.08;101015.03;4987043;28;20041;-78
2020/12/09 10:46:08;;;;;;;143.93;42.25;;;;;;;0.28;96.07;101015.72;4982838;28;20022;-78
2020/12/09 10:48:33;;;;;;;140.88;39.20;;;;;;;0.38;96.18;101013.06;4984581;28;20031;-80
2020/12/09 10:50:59;;;;;;;118.82;37.13;;;;;;;0.36;95.77;101014.59;4999599;28;20110;-79
2020/12/09 10:53:25;;;;;;;147.60;39.35;;;;;;;0.52;95.83;101014.81;4973232;28;20018;-80
2020/12/09 10:55:50;;;;;;;147.00;38.50;;;;;;;0.45;95.92;101019.38;4984300;28;20396;-78
2020/12/09 10:58:15;;;;;;;135.27;40.33;;;;;;;0.47;95.79;101012.78;4984572;28;20607;-79
2020/12/09 11:00:40;;;;;;;168.38;45.38;;;;;;;0.33;96.19;101009.34;4980778;28;20019;-79
2020/12/09 11:03:06;;;;;;;161.05;42.67;;;;;;;0.31;96.30;101004.16;4982747;28;20427;-77
2020/12/09 11:05:31;;;;;;;127.22;38.13;;;;;;;0.43;95.74;101004.13;4994228;28;20113;-79
2020/12/09 11:07:56;;;;;;;143.63;39.45;;;;;;;0.46;96.25;101008.50;4995509;28;20029;-78
2020/12/09 11:10:21;;;;;;;159.98;39.53;;;;;;;0.25;96.06;101000.34;4992297;28;20120;-79